sensor_id;sensor_type;location;lat;lon;timestamp;temperature;humidity
31639;DHT22;18248;51.522;7.020;2023-10-08T00:01:52;19.60;99.90
31639;DHT22;18248;51.522;7.020;2023-10-08T00:04:54;19.50;99.90
31639;DHT22;18248;51.522;7.020;2023-10-08T00:07:56;19.50;99.90
31639;DHT22;18248;51.522;7.020;2023-10-08T00:10:56;19.50;99.90
31639;DHT22;18248;51.522;7.020;2023-10-08T00:13:54;19.50;99.90
31639;DHT22;18248;51.522;7.020;2023-10-08T00:16:54;19.40;99.90
31639;DHT22;18248;51.522;7.020;2023-10-08T00:19:53;19.40;99.90
31639;DHT22;18248;51.522;7.020;2023-10-08T00:22:52;19.40;99.90
31639;DHT22;18248;51.522;7.020;2023-10-08T00:25:54;19.40;99.90
31639;DHT22;18248;51.522;7.020;2023-10-08T00:28:57;19.40;99.90
31639;DHT22;18248;51.522;7.020;2023-10-08T00:31:58;19.40;99.90
31639;DHT22;18248;51.522;7.020;2023-10-08T00:34:56;19.40;99.90
31639;DHT22;18248;51.522;7.020;2023-10-08T00:37:55;19.40;99.90
31639;DHT22;18248;51.522;7.020;2023-10-08T00:40:58;19.40;99.90
31639;DHT22;18248;51.522;7.020;2023-10-08T00:43:58;19.40;99.90
31639;DHT22;18248;51.522;7.020;2023-10-08T00:47:01;19.30;99.90
31639;DHT22;18248;51.522;7.020;2023-10-08T00:50:00;19.30;99.90
31639;DHT22;18248;51.522;7.020;2023-10-08T00:53:04;19.30;99.90
31639;DHT22;18248;51.522;7.020;2023-10-08T00:56:09;19.30;99.90
31639;DHT22;18248;51.522;7.020;2023-10-08T00:59:17;19.20;99.90
31639;DHT22;18248;51.522;7.020;2023-10-08T01:02:24;19.20;99.90
31639;DHT22;18248;51.522;7.020;2023-10-08T01:05:26;19.10;99.90
31639;DHT22;18248;51.522;7.020;2023-10-08T01:08:54;19.10;99.90
31639;DHT22;18248;51.522;7.020;2023-10-08T01:12:22;19.10;99.90
31639;DHT22;18248;51.522;7.020;2023-10-08T01:15:30;19.10;99.90
31639;DHT22;18248;51.522;7.020;2023-10-08T01:18:29;19.00;99.90
31639;DHT22;18248;51.522;7.020;2023-10-08T01:21:31;19.00;99.90
31639;DHT22;18248;51.522;7.020;2023-10-08T01:24:32;19.00;99.90
31639;DHT22;18248;51.522;7.020;2023-10-08T01:27:33;19.00;99.90
31639;DHT22;18248;51.522;7.020;2023-10-08T01:30:33;19.00;99.90
31639;DHT22;18248;51.522;7.020;2023-10-08T01:33:39;19.10;99.90
31639;DHT22;18248;51.522;7.020;2023-10-08T01:36:45;19.10;99.90
31639;DHT22;18248;51.522;7.020;2023-10-08T01:39:47;19.10;99.90
31639;DHT22;18248;51.522;7.020;2023-10-08T01:42:52;19.10;99.90
31639;DHT22;18248;51.522;7.020;2023-10-08T01:45:50;19.10;99.90
31639;DHT22;18248;51.522;7.020;2023-10-08T01:48:50;19.10;99.90
31639;DHT22;18248;51.522;7.020;2023-10-08T01:51:54;19.00;99.90
31639;DHT22;18248;51.522;7.020;2023-10-08T01:54:52;18.90;99.90
31639;DHT22;18248;51.522;7.020;2023-10-08T01:57:54;18.90;99.90
31639;DHT22;18248;51.522;7.020;2023-10-08T02:00:54;18.90;99.90
31639;DHT22;18248;51.522;7.020;2023-10-08T02:03:56;18.80;99.90
31639;DHT22;18248;51.522;7.020;2023-10-08T02:06:55;18.80;99.90
31639;DHT22;18248;51.522;7.020;2023-10-08T02:09:53;18.80;99.90
31639;DHT22;18248;51.522;7.020;2023-10-08T02:12:52;18.80;99.90
31639;DHT22;18248;51.522;7.020;2023-10-08T02:15:51;18.80;99.90
31639;DHT22;18248;51.522;7.020;2023-10-08T02:18:50;18.80;99.90
31639;DHT22;18248;51.522;7.020;2023-10-08T02:21:49;18.80;99.90
31639;DHT22;18248;51.522;7.020;2023-10-08T02:24:48;18.80;99.90
31639;DHT22;18248;51.522;7.020;2023-10-08T02:27:49;18.70;99.90
31639;DHT22;18248;51.522;7.020;2023-10-08T02:30:48;18.70;99.90
31639;DHT22;18248;51.522;7.020;2023-10-08T02:33:46;18.70;99.90
31639;DHT22;18248;51.522;7.020;2023-10-08T02:36:45;18.60;99.90
31639;DHT22;18248;51.522;7.020;2023-10-08T02:39:45;18.60;99.90
31639;DHT22;18248;51.522;7.020;2023-10-08T02:42:43;18.60;99.90
31639;DHT22;18248;51.522;7.020;2023-10-08T02:45:43;18.60;99.90
31639;DHT22;18248;51.522;7.020;2023-10-08T02:48:45;18.60;99.90
31639;DHT22;18248;51.522;7.020;2023-10-08T02:51:45;18.60;99.90
31639;DHT22;18248;51.522;7.020;2023-10-08T02:54:44;18.60;99.90
31639;DHT22;18248;51.522;7.020;2023-10-08T02:57:43;18.50;99.90
31639;DHT22;18248;51.522;7.020;2023-10-08T03:00:42;18.60;99.90
31639;DHT22;18248;51.522;7.020;2023-10-08T03:03:41;18.60;99.90
31639;DHT22;18248;51.522;7.020;2023-10-08T03:06:41;18.60;99.90
31639;DHT22;18248;51.522;7.020;2023-10-08T03:09:39;18.60;99.90
31639;DHT22;18248;51.522;7.020;2023-10-08T03:12:40;18.60;99.90
31639;DHT22;18248;51.522;7.020;2023-10-08T03:15:41;18.60;99.90
31639;DHT22;18248;51.522;7.020;2023-10-08T03:18:58;18.60;99.90
31639;DHT22;18248;51.522;7.020;2023-10-08T03:21:57;18.60;99.90
31639;DHT22;18248;51.522;7.020;2023-10-08T03:24:55;18.60;99.90
31639;DHT22;18248;51.522;7.020;2023-10-08T03:27:56;18.60;99.90
31639;DHT22;18248;51.522;7.020;2023-10-08T03:30:57;18.60;99.90
31639;DHT22;18248;51.522;7.020;2023-10-08T03:34:02;18.60;99.90
31639;DHT22;18248;51.522;7.020;2023-10-08T03:37:01;18.60;99.90
31639;DHT22;18248;51.522;7.020;2023-10-08T03:40:07;18.50;99.90
31639;DHT22;18248;51.522;7.020;2023-10-08T03:43:21;18.50;99.90
31639;DHT22;18248;51.522;7.020;2023-10-08T03:46:33;18.40;99.90
31639;DHT22;18248;51.522;7.020;2023-10-08T03:49:40;18.40;99.90
31639;DHT22;18248;51.522;7.020;2023-10-08T03:52:43;18.40;99.90
31639;DHT22;18248;51.522;7.020;2023-10-08T03:55:42;18.40;99.90
31639;DHT22;18248;51.522;7.020;2023-10-08T03:58:41;18.30;99.90
31639;DHT22;18248;51.522;7.020;2023-10-08T04:01:45;18.40;99.90
31639;DHT22;18248;51.522;7.020;2023-10-08T04:04:44;18.30;99.90
31639;DHT22;18248;51.522;7.020;2023-10-08T04:07:55;18.30;99.90
31639;DHT22;18248;51.522;7.020;2023-10-08T04:10:57;18.30;99.90
31639;DHT22;18248;51.522;7.020;2023-10-08T04:14:06;18.30;99.90
31639;DHT22;18248;51.522;7.020;2023-10-08T04:17:04;18.30;99.90
31639;DHT22;18248;51.522;7.020;2023-10-08T04:20:07;18.20;99.90
31639;DHT22;18248;51.522;7.020;2023-10-08T04:23:26;18.20;99.90
31639;DHT22;18248;51.522;7.020;2023-10-08T04:26:24;18.20;99.90
31639;DHT22;18248;51.522;7.020;2023-10-08T04:29:23;18.20;99.90
31639;DHT22;18248;51.522;7.020;2023-10-08T04:32:22;18.20;99.90
31639;DHT22;18248;51.522;7.020;2023-10-08T04:35:23;18.20;99.90
31639;DHT22;18248;51.522;7.020;2023-10-08T04:38:25;18.20;99.90
31639;DHT22;18248;51.522;7.020;2023-10-08T04:41:24;18.20;99.90
31639;DHT22;18248;51.522;7.020;2023-10-08T04:44:26;18.20;99.90
31639;DHT22;18248;51.522;7.020;2023-10-08T04:47:25;18.20;99.90
31639;DHT22;18248;51.522;7.020;2023-10-08T04:50:30;18.20;99.90
31639;DHT22;18248;51.522;7.020;2023-10-08T04:53:31;18.10;99.90
31639;DHT22;18248;51.522;7.020;2023-10-08T04:56:50;18.10;99.90
31639;DHT22;18248;51.522;7.020;2023-10-08T04:59:51;18.10;99.90
31639;DHT22;18248;51.522;7.020;2023-10-08T05:02:50;18.10;99.90
31639;DHT22;18248;51.522;7.020;2023-10-08T05:05:49;18.10;99.90
31639;DHT22;18248;51.522;7.020;2023-10-08T05:09:09;18.10;99.90
31639;DHT22;18248;51.522;7.020;2023-10-08T05:12:17;18.10;99.90
31639;DHT22;18248;51.522;7.020;2023-10-08T05:15:44;18.10;99.90
31639;DHT22;18248;51.522;7.020;2023-10-08T05:19:12;18.10;99.90
31639;DHT22;18248;51.522;7.020;2023-10-08T05:22:29;18.10;99.90
31639;DHT22;18248;51.522;7.020;2023-10-08T05:25:27;18.10;99.90
31639;DHT22;18248;51.522;7.020;2023-10-08T05:28:39;18.10;99.90
31639;DHT22;18248;51.522;7.020;2023-10-08T05:31:57;18.00;99.90
31639;DHT22;18248;51.522;7.020;2023-10-08T05:35:14;18.00;99.90
31639;DHT22;18248;51.522;7.020;2023-10-08T05:38:31;18.00;99.90
31639;DHT22;18248;51.522;7.020;2023-10-08T05:41:32;18.00;99.90
31639;DHT22;18248;51.522;7.020;2023-10-08T05:44:37;17.90;99.90
31639;DHT22;18248;51.522;7.020;2023-10-08T05:47:41;17.80;99.90
31639;DHT22;18248;51.522;7.020;2023-10-08T05:51:06;17.80;99.90
31639;DHT22;18248;51.522;7.020;2023-10-08T05:54:12;17.80;99.90
31639;DHT22;18248;51.522;7.020;2023-10-08T05:57:29;17.80;99.90
31639;DHT22;18248;51.522;7.020;2023-10-08T06:00:37;17.80;99.90
31639;DHT22;18248;51.522;7.020;2023-10-08T06:03:47;17.80;99.90
31639;DHT22;18248;51.522;7.020;2023-10-08T06:06:58;17.80;99.90
31639;DHT22;18248;51.522;7.020;2023-10-08T06:10:10;17.80;99.90
31639;DHT22;18248;51.522;7.020;2023-10-08T06:13:24;17.80;99.90
31639;DHT22;18248;51.522;7.020;2023-10-08T06:16:44;17.90;99.90
31639;DHT22;18248;51.522;7.020;2023-10-08T06:19:45;17.90;99.90
31639;DHT22;18248;51.522;7.020;2023-10-08T06:22:43;17.90;99.90
31639;DHT22;18248;51.522;7.020;2023-10-08T06:25:42;18.00;99.90
31639;DHT22;18248;51.522;7.020;2023-10-08T06:28:44;18.00;99.90
31639;DHT22;18248;51.522;7.020;2023-10-08T06:31:42;18.00;99.90
31639;DHT22;18248;51.522;7.020;2023-10-08T06:34:44;18.00;99.90
31639;DHT22;18248;51.522;7.020;2023-10-08T06:37:46;18.00;99.90
31639;DHT22;18248;51.522;7.020;2023-10-08T06:40:47;18.00;99.90
31639;DHT22;18248;51.522;7.020;2023-10-08T06:43:48;18.10;99.90
31639;DHT22;18248;51.522;7.020;2023-10-08T06:47:01;18.00;99.90
31639;DHT22;18248;51.522;7.020;2023-10-08T06:49:59;18.00;99.90
31639;DHT22;18248;51.522;7.020;2023-10-08T06:52:58;18.10;99.90
31639;DHT22;18248;51.522;7.020;2023-10-08T06:55:56;18.10;99.90
31639;DHT22;18248;51.522;7.020;2023-10-08T06:58:55;18.10;99.90
31639;DHT22;18248;51.522;7.020;2023-10-08T07:01:53;18.00;99.90
31639;DHT22;18248;51.522;7.020;2023-10-08T07:04:52;18.00;99.90
31639;DHT22;18248;51.522;7.020;2023-10-08T07:07:51;18.10;99.90
31639;DHT22;18248;51.522;7.020;2023-10-08T07:10:51;18.00;99.90
31639;DHT22;18248;51.522;7.020;2023-10-08T07:13:51;18.00;99.90
31639;DHT22;18248;51.522;7.020;2023-10-08T07:16:49;18.10;99.90
31639;DHT22;18248;51.522;7.020;2023-10-08T07:19:53;18.00;99.90
31639;DHT22;18248;51.522;7.020;2023-10-08T07:22:51;18.10;99.90
31639;DHT22;18248;51.522;7.020;2023-10-08T07:25:56;18.00;99.90
31639;DHT22;18248;51.522;7.020;2023-10-08T07:29:18;18.00;99.90
31639;DHT22;18248;51.522;7.020;2023-10-08T07:32:17;18.00;99.90
31639;DHT22;18248;51.522;7.020;2023-10-08T07:35:17;18.00;99.90
31639;DHT22;18248;51.522;7.020;2023-10-08T07:38:18;18.10;99.90
31639;DHT22;18248;51.522;7.020;2023-10-08T07:41:17;18.10;99.90
31639;DHT22;18248;51.522;7.020;2023-10-08T07:44:18;18.10;99.90
31639;DHT22;18248;51.522;7.020;2023-10-08T07:47:19;18.20;99.90
31639;DHT22;18248;51.522;7.020;2023-10-08T07:50:19;18.20;99.90
31639;DHT22;18248;51.522;7.020;2023-10-08T07:53:18;18.20;99.90
31639;DHT22;18248;51.522;7.020;2023-10-08T07:56:16;18.10;99.90
31639;DHT22;18248;51.522;7.020;2023-10-08T07:59:16;18.10;99.90
31639;DHT22;18248;51.522;7.020;2023-10-08T08:02:15;18.00;99.90
31639;DHT22;18248;51.522;7.020;2023-10-08T08:05:15;17.90;99.90
31639;DHT22;18248;51.522;7.020;2023-10-08T08:08:15;17.80;99.90
31639;DHT22;18248;51.522;7.020;2023-10-08T08:11:16;17.70;99.90
31639;DHT22;18248;51.522;7.020;2023-10-08T08:14:16;17.60;99.90
31639;DHT22;18248;51.522;7.020;2023-10-08T08:17:23;17.60;99.90
31639;DHT22;18248;51.522;7.020;2023-10-08T08:20:21;17.50;99.90
31639;DHT22;18248;51.522;7.020;2023-10-08T08:23:21;17.40;99.90
31639;DHT22;18248;51.522;7.020;2023-10-08T08:26:22;17.50;99.90
31639;DHT22;18248;51.522;7.020;2023-10-08T08:29:28;17.40;99.90
31639;DHT22;18248;51.522;7.020;2023-10-08T08:32:27;17.40;99.90
31639;DHT22;18248;51.522;7.020;2023-10-08T08:35:26;17.40;99.90
31639;DHT22;18248;51.522;7.020;2023-10-08T08:38:25;17.40;99.90
31639;DHT22;18248;51.522;7.020;2023-10-08T08:41:24;17.30;99.90
31639;DHT22;18248;51.522;7.020;2023-10-08T08:44:23;17.40;99.90
31639;DHT22;18248;51.522;7.020;2023-10-08T08:47:22;17.40;99.90
31639;DHT22;18248;51.522;7.020;2023-10-08T08:50:23;17.30;99.90
31639;DHT22;18248;51.522;7.020;2023-10-08T08:53:21;17.30;99.90
31639;DHT22;18248;51.522;7.020;2023-10-08T08:56:21;17.30;99.90
31639;DHT22;18248;51.522;7.020;2023-10-08T08:59:21;17.30;99.90
31639;DHT22;18248;51.522;7.020;2023-10-08T09:02:20;17.30;99.90
31639;DHT22;18248;51.522;7.020;2023-10-08T09:05:19;17.20;99.90
31639;DHT22;18248;51.522;7.020;2023-10-08T09:08:28;17.20;99.90
31639;DHT22;18248;51.522;7.020;2023-10-08T09:11:26;17.20;99.90
31639;DHT22;18248;51.522;7.020;2023-10-08T09:14:27;17.20;99.90
31639;DHT22;18248;51.522;7.020;2023-10-08T09:17:25;17.20;99.90
31639;DHT22;18248;51.522;7.020;2023-10-08T09:20:24;17.20;99.90
31639;DHT22;18248;51.522;7.020;2023-10-08T09:23:24;17.20;99.90
31639;DHT22;18248;51.522;7.020;2023-10-08T09:26:24;17.20;99.90
31639;DHT22;18248;51.522;7.020;2023-10-08T09:29:24;17.20;99.90
31639;DHT22;18248;51.522;7.020;2023-10-08T09:32:22;17.20;99.90
31639;DHT22;18248;51.522;7.020;2023-10-08T09:35:24;17.20;99.90
31639;DHT22;18248;51.522;7.020;2023-10-08T09:38:25;17.10;99.90
31639;DHT22;18248;51.522;7.020;2023-10-08T09:41:29;17.10;99.90
31639;DHT22;18248;51.522;7.020;2023-10-08T09:44:29;17.10;99.90
31639;DHT22;18248;51.522;7.020;2023-10-08T09:47:30;17.10;99.90
31639;DHT22;18248;51.522;7.020;2023-10-08T09:50:30;17.10;99.90
31639;DHT22;18248;51.522;7.020;2023-10-08T09:53:43;17.00;99.90
31639;DHT22;18248;51.522;7.020;2023-10-08T09:56:46;17.00;99.90
31639;DHT22;18248;51.522;7.020;2023-10-08T09:59:45;16.90;99.90
31639;DHT22;18248;51.522;7.020;2023-10-08T10:02:45;16.90;99.90
31639;DHT22;18248;51.522;7.020;2023-10-08T10:05:45;16.90;99.90
31639;DHT22;18248;51.522;7.020;2023-10-08T10:08:44;17.00;99.90
31639;DHT22;18248;51.522;7.020;2023-10-08T10:11:48;17.00;99.90
31639;DHT22;18248;51.522;7.020;2023-10-08T10:14:48;17.00;99.90
31639;DHT22;18248;51.522;7.020;2023-10-08T10:17:47;17.00;99.90
31639;DHT22;18248;51.522;7.020;2023-10-08T10:20:53;17.10;99.90
31639;DHT22;18248;51.522;7.020;2023-10-08T10:23:59;17.10;99.90
31639;DHT22;18248;51.522;7.020;2023-10-08T10:27:16;17.10;99.90
31639;DHT22;18248;51.522;7.020;2023-10-08T10:30:16;17.00;99.90
31639;DHT22;18248;51.522;7.020;2023-10-08T10:33:17;17.00;99.90
31639;DHT22;18248;51.522;7.020;2023-10-08T10:36:16;17.10;99.90
31639;DHT22;18248;51.522;7.020;2023-10-08T10:39:17;17.20;99.90
31639;DHT22;18248;51.522;7.020;2023-10-08T10:46:19;17.10;99.90
31639;DHT22;18248;51.522;7.020;2023-10-08T10:49:30;17.20;99.90
31639;DHT22;18248;51.522;7.020;2023-10-08T10:52:35;17.20;99.90
31639;DHT22;18248;51.522;7.020;2023-10-08T10:55:49;17.20;99.90
31639;DHT22;18248;51.522;7.020;2023-10-08T10:58:59;17.30;99.90
31639;DHT22;18248;51.522;7.020;2023-10-08T11:01:58;17.40;99.90
31639;DHT22;18248;51.522;7.020;2023-10-08T11:05:19;17.40;99.90
31639;DHT22;18248;51.522;7.020;2023-10-08T11:08:18;17.50;99.90
31639;DHT22;18248;51.522;7.020;2023-10-08T11:11:25;17.50;99.90
31639;DHT22;18248;51.522;7.020;2023-10-08T11:14:25;17.50;99.90
31639;DHT22;18248;51.522;7.020;2023-10-08T11:17:25;17.40;99.90
31639;DHT22;18248;51.522;7.020;2023-10-08T11:20:26;17.40;99.90
31639;DHT22;18248;51.522;7.020;2023-10-08T11:23:41;17.50;99.90
31639;DHT22;18248;51.522;7.020;2023-10-08T11:26:39;17.50;99.90
31639;DHT22;18248;51.522;7.020;2023-10-08T11:29:48;17.40;99.90
31639;DHT22;18248;51.522;7.020;2023-10-08T11:32:52;17.40;99.90
31639;DHT22;18248;51.522;7.020;2023-10-08T11:36:00;17.40;99.90
31639;DHT22;18248;51.522;7.020;2023-10-08T11:39:10;17.50;99.90
31639;DHT22;18248;51.522;7.020;2023-10-08T11:42:09;17.50;99.90
31639;DHT22;18248;51.522;7.020;2023-10-08T11:45:27;17.60;99.90
31639;DHT22;18248;51.522;7.020;2023-10-08T11:48:26;17.80;99.90
31639;DHT22;18248;51.522;7.020;2023-10-08T11:51:26;17.90;99.90
31639;DHT22;18248;51.522;7.020;2023-10-08T11:54:26;18.00;99.90
31639;DHT22;18248;51.522;7.020;2023-10-08T11:57:27;18.10;99.90
31639;DHT22;18248;51.522;7.020;2023-10-08T12:00:25;18.10;99.90
31639;DHT22;18248;51.522;7.020;2023-10-08T12:03:24;18.20;99.90
31639;DHT22;18248;51.522;7.020;2023-10-08T12:06:25;18.20;99.90
31639;DHT22;18248;51.522;7.020;2023-10-08T12:09:27;18.30;99.90
31639;DHT22;18248;51.522;7.020;2023-10-08T12:12:26;18.30;99.90
31639;DHT22;18248;51.522;7.020;2023-10-08T12:15:26;18.40;99.90
31639;DHT22;18248;51.522;7.020;2023-10-08T12:18:33;18.50;99.90
31639;DHT22;18248;51.522;7.020;2023-10-08T12:21:37;18.60;99.90
31639;DHT22;18248;51.522;7.020;2023-10-08T12:24:37;18.70;99.90
31639;DHT22;18248;51.522;7.020;2023-10-08T12:27:36;18.50;99.90
31639;DHT22;18248;51.522;7.020;2023-10-08T12:30:35;18.40;99.90
31639;DHT22;18248;51.522;7.020;2023-10-08T12:33:39;18.40;99.90
31639;DHT22;18248;51.522;7.020;2023-10-08T12:36:38;18.50;99.90
31639;DHT22;18248;51.522;7.020;2023-10-08T12:39:37;18.60;99.90
31639;DHT22;18248;51.522;7.020;2023-10-08T12:42:51;18.70;99.90
31639;DHT22;18248;51.522;7.020;2023-10-08T12:45:51;18.70;99.90
31639;DHT22;18248;51.522;7.020;2023-10-08T12:48:53;18.80;99.90
31639;DHT22;18248;51.522;7.020;2023-10-08T12:51:55;18.90;99.90
31639;DHT22;18248;51.522;7.020;2023-10-08T12:54:53;18.80;99.90
31639;DHT22;18248;51.522;7.020;2023-10-08T12:57:54;18.70;99.90
31639;DHT22;18248;51.522;7.020;2023-10-08T13:01:04;18.70;99.90
31639;DHT22;18248;51.522;7.020;2023-10-08T13:04:05;18.70;99.90
31639;DHT22;18248;51.522;7.020;2023-10-08T13:07:14;18.70;99.90
31639;DHT22;18248;51.522;7.020;2023-10-08T13:10:13;18.70;99.90
31639;DHT22;18248;51.522;7.020;2023-10-08T13:13:13;18.70;99.90
31639;DHT22;18248;51.522;7.020;2023-10-08T13:16:12;18.70;99.90
31639;DHT22;18248;51.522;7.020;2023-10-08T13:19:10;18.60;99.90
31639;DHT22;18248;51.522;7.020;2023-10-08T13:22:09;18.60;99.90
31639;DHT22;18248;51.522;7.020;2023-10-08T13:25:08;18.60;99.90
31639;DHT22;18248;51.522;7.020;2023-10-08T13:28:06;18.70;99.90
31639;DHT22;18248;51.522;7.020;2023-10-08T13:31:08;18.80;99.90
31639;DHT22;18248;51.522;7.020;2023-10-08T13:34:09;18.70;99.90
31639;DHT22;18248;51.522;7.020;2023-10-08T13:37:10;18.70;99.90
31639;DHT22;18248;51.522;7.020;2023-10-08T13:40:09;18.70;99.90
31639;DHT22;18248;51.522;7.020;2023-10-08T13:43:08;18.70;99.90
31639;DHT22;18248;51.522;7.020;2023-10-08T13:46:10;18.70;99.90
31639;DHT22;18248;51.522;7.020;2023-10-08T13:49:11;18.70;99.90
31639;DHT22;18248;51.522;7.020;2023-10-08T13:52:10;18.70;99.90
31639;DHT22;18248;51.522;7.020;2023-10-08T13:55:09;18.60;99.90
31639;DHT22;18248;51.522;7.020;2023-10-08T13:58:12;18.70;99.90
31639;DHT22;18248;51.522;7.020;2023-10-08T14:01:12;18.60;99.90
31639;DHT22;18248;51.522;7.020;2023-10-08T14:04:19;18.60;99.90
31639;DHT22;18248;51.522;7.020;2023-10-08T14:07:18;18.60;99.90
31639;DHT22;18248;51.522;7.020;2023-10-08T14:10:17;18.60;99.90
31639;DHT22;18248;51.522;7.020;2023-10-08T14:13:18;18.70;99.90
31639;DHT22;18248;51.522;7.020;2023-10-08T14:16:18;18.70;99.90
31639;DHT22;18248;51.522;7.020;2023-10-08T14:19:21;18.80;99.90
31639;DHT22;18248;51.522;7.020;2023-10-08T14:22:27;18.80;99.90
31639;DHT22;18248;51.522;7.020;2023-10-08T14:25:26;18.80;99.90
31639;DHT22;18248;51.522;7.020;2023-10-08T14:28:26;18.80;99.90
31639;DHT22;18248;51.522;7.020;2023-10-08T14:31:38;18.70;99.90
31639;DHT22;18248;51.522;7.020;2023-10-08T14:34:37;18.70;99.90
31639;DHT22;18248;51.522;7.020;2023-10-08T14:37:45;18.70;99.90
31639;DHT22;18248;51.522;7.020;2023-10-08T14:41:02;18.70;99.90
31639;DHT22;18248;51.522;7.020;2023-10-08T14:44:19;18.70;99.90
31639;DHT22;18248;51.522;7.020;2023-10-08T14:47:18;18.70;99.90
31639;DHT22;18248;51.522;7.020;2023-10-08T14:50:16;18.60;99.90
31639;DHT22;18248;51.522;7.020;2023-10-08T14:53:15;18.60;99.90
31639;DHT22;18248;51.522;7.020;2023-10-08T14:56:14;18.60;99.90
31639;DHT22;18248;51.522;7.020;2023-10-08T14:59:14;18.60;99.90
31639;DHT22;18248;51.522;7.020;2023-10-08T15:02:13;18.60;99.90
31639;DHT22;18248;51.522;7.020;2023-10-08T15:05:12;18.60;99.90
31639;DHT22;18248;51.522;7.020;2023-10-08T15:08:12;18.60;99.90
31639;DHT22;18248;51.522;7.020;2023-10-08T15:11:12;18.60;99.90
31639;DHT22;18248;51.522;7.020;2023-10-08T15:14:11;18.50;99.90
31639;DHT22;18248;51.522;7.020;2023-10-08T15:17:10;18.50;99.90
31639;DHT22;18248;51.522;7.020;2023-10-08T15:20:13;18.50;99.90
31639;DHT22;18248;51.522;7.020;2023-10-08T15:23:17;18.50;99.90
31639;DHT22;18248;51.522;7.020;2023-10-08T15:26:18;18.50;99.90
31639;DHT22;18248;51.522;7.020;2023-10-08T15:29:17;18.50;99.90
31639;DHT22;18248;51.522;7.020;2023-10-08T15:32:15;18.40;99.90
31639;DHT22;18248;51.522;7.020;2023-10-08T15:35:16;18.40;99.90
31639;DHT22;18248;51.522;7.020;2023-10-08T15:38:18;18.40;99.90
31639;DHT22;18248;51.522;7.020;2023-10-08T15:41:16;18.40;99.90
31639;DHT22;18248;51.522;7.020;2023-10-08T15:44:20;18.40;99.90
31639;DHT22;18248;51.522;7.020;2023-10-08T15:47:21;18.40;99.90
31639;DHT22;18248;51.522;7.020;2023-10-08T15:50:21;18.40;99.90
31639;DHT22;18248;51.522;7.020;2023-10-08T15:53:22;18.40;99.90
31639;DHT22;18248;51.522;7.020;2023-10-08T15:56:21;18.30;99.90
31639;DHT22;18248;51.522;7.020;2023-10-08T15:59:19;18.20;99.90
31639;DHT22;18248;51.522;7.020;2023-10-08T16:02:18;18.30;99.90
31639;DHT22;18248;51.522;7.020;2023-10-08T16:05:17;18.30;99.90
31639;DHT22;18248;51.522;7.020;2023-10-08T16:08:15;18.20;99.90
31639;DHT22;18248;51.522;7.020;2023-10-08T16:11:14;18.20;99.90
31639;DHT22;18248;51.522;7.020;2023-10-08T16:14:13;18.10;99.90
31639;DHT22;18248;51.522;7.020;2023-10-08T16:17:12;18.10;99.90
31639;DHT22;18248;51.522;7.020;2023-10-08T16:20:13;18.10;99.90
31639;DHT22;18248;51.522;7.020;2023-10-08T16:23:12;18.00;99.90
31639;DHT22;18248;51.522;7.020;2023-10-08T16:26:11;18.00;99.90
31639;DHT22;18248;51.522;7.020;2023-10-08T16:29:09;17.90;99.90
31639;DHT22;18248;51.522;7.020;2023-10-08T16:32:11;17.90;99.90
31639;DHT22;18248;51.522;7.020;2023-10-08T16:35:10;17.90;99.90
31639;DHT22;18248;51.522;7.020;2023-10-08T16:38:09;17.80;99.90
31639;DHT22;18248;51.522;7.020;2023-10-08T16:41:08;17.80;99.90
31639;DHT22;18248;51.522;7.020;2023-10-08T16:44:11;17.80;99.90
31639;DHT22;18248;51.522;7.020;2023-10-08T16:47:12;17.70;99.90
31639;DHT22;18248;51.522;7.020;2023-10-08T16:50:11;17.60;99.90
31639;DHT22;18248;51.522;7.020;2023-10-08T16:53:12;17.60;99.90
31639;DHT22;18248;51.522;7.020;2023-10-08T16:56:14;17.60;99.90
31639;DHT22;18248;51.522;7.020;2023-10-08T16:59:13;17.50;99.90
31639;DHT22;18248;51.522;7.020;2023-10-08T17:02:17;17.50;99.90
31639;DHT22;18248;51.522;7.020;2023-10-08T17:05:15;17.50;99.90
31639;DHT22;18248;51.522;7.020;2023-10-08T17:08:14;17.40;99.90
31639;DHT22;18248;51.522;7.020;2023-10-08T17:11:14;17.40;99.90
31639;DHT22;18248;51.522;7.020;2023-10-08T17:14:13;17.40;99.90
31639;DHT22;18248;51.522;7.020;2023-10-08T17:17:12;17.30;99.90
31639;DHT22;18248;51.522;7.020;2023-10-08T17:20:11;17.30;99.90
31639;DHT22;18248;51.522;7.020;2023-10-08T17:23:11;17.20;99.90
31639;DHT22;18248;51.522;7.020;2023-10-08T17:26:10;17.20;99.90
31639;DHT22;18248;51.522;7.020;2023-10-08T17:29:09;17.20;99.90
31639;DHT22;18248;51.522;7.020;2023-10-08T17:32:08;17.10;99.90
31639;DHT22;18248;51.522;7.020;2023-10-08T17:35:07;17.10;99.90
31639;DHT22;18248;51.522;7.020;2023-10-08T17:38:08;17.00;99.90
31639;DHT22;18248;51.522;7.020;2023-10-08T17:41:09;17.00;99.90
31639;DHT22;18248;51.522;7.020;2023-10-08T17:44:07;16.90;99.90
31639;DHT22;18248;51.522;7.020;2023-10-08T17:47:06;16.90;99.90
31639;DHT22;18248;51.522;7.020;2023-10-08T17:50:05;16.80;99.90
31639;DHT22;18248;51.522;7.020;2023-10-08T18:30:03;16.20;99.90
31639;DHT22;18248;51.522;7.020;2023-10-08T18:33:04;16.20;99.90
31639;DHT22;18248;51.522;7.020;2023-10-08T18:36:05;16.20;99.90
31639;DHT22;18248;51.522;7.020;2023-10-08T18:39:04;16.10;99.90
31639;DHT22;18248;51.522;7.020;2023-10-08T18:42:11;16.10;99.90
31639;DHT22;18248;51.522;7.020;2023-10-08T18:45:11;16.10;99.90
31639;DHT22;18248;51.522;7.020;2023-10-08T18:48:10;16.00;99.90
31639;DHT22;18248;51.522;7.020;2023-10-08T18:51:09;16.00;99.90
31639;DHT22;18248;51.522;7.020;2023-10-08T18:54:11;15.90;99.90
31639;DHT22;18248;51.522;7.020;2023-10-08T18:57:13;15.90;99.90
31639;DHT22;18248;51.522;7.020;2023-10-08T19:00:13;15.80;99.90
31639;DHT22;18248;51.522;7.020;2023-10-08T19:03:12;15.80;99.90
31639;DHT22;18248;51.522;7.020;2023-10-08T19:06:11;15.70;99.90
31639;DHT22;18248;51.522;7.020;2023-10-08T19:09:10;15.70;99.90
31639;DHT22;18248;51.522;7.020;2023-10-08T19:12:10;15.70;99.90
31639;DHT22;18248;51.522;7.020;2023-10-08T19:15:09;15.60;99.90
31639;DHT22;18248;51.522;7.020;2023-10-08T19:18:11;15.60;99.90
31639;DHT22;18248;51.522;7.020;2023-10-08T19:21:15;15.60;99.90
31639;DHT22;18248;51.522;7.020;2023-10-08T19:24:15;15.60;99.90
31639;DHT22;18248;51.522;7.020;2023-10-08T19:27:15;15.60;99.90
31639;DHT22;18248;51.522;7.020;2023-10-08T19:30:15;15.50;99.90
31639;DHT22;18248;51.522;7.020;2023-10-08T19:33:16;15.50;99.90
31639;DHT22;18248;51.522;7.020;2023-10-08T19:36:14;15.50;99.90
31639;DHT22;18248;51.522;7.020;2023-10-08T19:39:13;15.50;99.90
31639;DHT22;18248;51.522;7.020;2023-10-08T19:42:12;15.40;99.90
31639;DHT22;18248;51.522;7.020;2023-10-08T19:45:10;15.40;99.90
31639;DHT22;18248;51.522;7.020;2023-10-08T19:48:16;15.30;99.90
31639;DHT22;18248;51.522;7.020;2023-10-08T19:51:15;15.30;99.90